Time;durP1;ratioP1;P1;durP2;ratioP2;P2;SDS_P1;SDS_P2;PMS_P1;PMS_P2;Temp;Humidity;BMP_temperature;BMP_pressure;BME280_temperature;BME280_humidity;BME280_pressure;Samples;Min_cycle;Max_cycle;Signal;HPM_P1;HPM_P2
2022/09/28 00:11:36;;;;;;;5.30;2.73;;;11.00;99.90;;;;;;5038544;28;20174;-93
2022/09/28 00:14:39;;;;;;;4.47;2.60;;;10.90;99.90;;;;;;5037921;28;20186;-92
2022/09/28 00:24:44;;;;;;;6.40;2.83;;;11.10;99.90;;;;;;5019386;28;20157;-93
2022/09/28 00:27:52;;;;;;;4.27;2.77;;;11.40;99.90;;;;;;5019345;28;20194;-92
2022/09/28 00:31:01;;;;;;;4.17;2.03;;;11.00;99.90;;;;;;5019167;28;20221;-93
2022/09/28 00:37:33;;;;;;;4.10;2.73;;;10.50;99.90;;;;;;5019020;28;20190;-93
2022/09/28 00:44:03;;;;;;;4.17;2.27;;;10.90;99.90;;;;;;5019234;28;20152;-93
2022/09/28 00:53:24;;;;;;;4.57;2.77;;;11.00;99.90;;;;;;5128418;23;20226;-92
2022/09/28 00:56:34;;;;;;;5.13;2.80;;;11.10;99.90;;;;;;5023175;28;20171;-92
2022/09/28 01:00:03;;;;;;;5.03;3.73;;;11.10;99.90;;;;;;5037481;28;20175;-92
2022/09/28 01:03:15;;;;;;;4.90;2.50;;;10.90;99.90;;;;;;5045030;22;20218;-92
2022/09/28 01:09:46;;;;;;;5.20;2.37;;;11.00;99.90;;;;;;5022953;28;20222;-92
2022/09/28 01:12:49;;;;;;;5.70;2.73;;;10.90;99.90;;;;;;5022281;28;20242;-92
2022/09/28 01:43:11;;;;;;;3.50;2.67;;;10.80;99.90;;;;;;5021223;28;20213;-91
2022/09/28 01:48:53;;;;;;;6.13;2.53;;;10.70;99.90;;;;;;5034646;23;20226;-91
2022/09/28 01:55:31;;;;;;;4.40;2.70;;;10.50;99.90;;;;;;5022050;28;20146;-92
2022/09/28 01:58:47;;;;;;;6.13;2.60;;;10.70;99.90;;;;;;5040495;23;20215;-93
2022/09/28 02:05:14;;;;;;;5.27;2.33;;;10.80;99.90;;;;;;5021958;28;20167;-92
2022/09/28 02:12:21;;;;;;;4.93;2.40;;;10.50;99.90;;;;;;5019916;28;20182;-93
2022/09/28 02:36:12;;;;;;;4.33;2.70;;;10.80;99.90;;;;;;5021330;28;20254;-93
2022/09/28 02:48:41;;;;;;;4.50;2.70;;;10.50;99.90;;;;;;5519919;23;20226;-94
2022/09/28 03:00:21;;;;;;;3.43;1.93;;;10.70;99.90;;;;;;5397016;23;20214;-91
2022/09/28 03:03:48;;;;;;;5.00;2.00;;;10.60;99.90;;;;;;5021524;28;20156;-92
2022/09/28 03:13:43;;;;;;;2.90;1.90;;;10.80;99.90;;;;;;5035239;28;20221;-93
2022/09/28 03:23:20;;;;;;;2.50;1.60;;;11.10;99.60;;;;;;5019395;28;20162;-92
2022/09/28 03:26:32;;;;;;;2.97;1.80;;;11.10;98.10;;;;;;5003291;28;20156;-92
2022/09/28 03:33:04;;;;;;;4.07;1.70;;;11.20;96.30;;;;;;5019496;28;20151;-91
2022/09/28 03:36:35;;;;;;;5.23;1.60;;;11.10;93.90;;;;;;5029111;23;20223;-91
2022/09/28 03:43:09;;;;;;;3.83;1.40;;;11.20;86.90;;;;;;5020111;28;20194;-93
2022/09/28 03:49:04;;;;;;;3.57;1.60;;;10.90;83.60;;;;;;5615384;23;20226;-92
2022/09/28 03:52:22;;;;;;;2.47;1.50;;;10.80;87.30;;;;;;5022016;28;20229;-90
2022/09/28 03:55:34;;;;;;;2.90;1.50;;;10.70;88.40;;;;;;5038542;28;20162;-90
2022/09/28 03:58:01;;;;;;;4.97;1.80;;;10.40;92.00;;;;;;5049507;23;20214;-91
2022/09/28 04:14:39;;;;;;;4.27;1.90;;;10.30;99.90;;;;;;4999085;28;20225;-91
2022/09/28 04:40:09;;;;;;;5.87;2.30;;;9.80;99.90;;;;;;5115911;22;20237;-92
2022/09/28 04:43:03;;;;;;;4.53;2.03;;;9.90;99.90;;;;;;5017598;28;20221;-92
2022/09/28 04:46:20;;;;;;;3.10;2.07;;;9.70;99.90;;;;;;5017399;28;20206;-92
2022/09/28 04:49:05;;;;;;;5.37;2.30;;;9.60;99.90;;;;;;5018421;28;20230;-93
2022/09/28 04:52:19;;;;;;;3.33;2.17;;;9.60;99.90;;;;;;5017749;28;20202;-92
2022/09/28 04:55:38;;;;;;;5.97;2.50;;;9.60;99.90;;;;;;5016929;28;20163;-92
2022/09/28 05:05:13;;;;;;;6.97;2.93;;;9.60;99.90;;;;;;5017255;28;20190;-92
2022/09/28 05:08:40;;;;;;;7.53;2.87;;;9.20;99.90;;;;;;5017470;28;20190;-92
2022/09/28 05:11:52;;;;;;;4.57;2.50;;;9.50;99.90;;;;;;5017012;28;20186;-92
2022/09/28 05:27:49;;;;;;;11.43;3.83;;;9.60;99.90;;;;;;5052817;23;20162;-93
2022/09/28 05:38:01;;;;;;;8.60;4.50;;;9.60;99.90;;;;;;5019369;28;20154;-93
2022/09/28 05:51:52;;;;;;;8.97;5.67;;;9.60;99.90;;;;;;4996388;28;20213;-89
2022/09/28 05:54:19;;;;;;;8.97;6.00;;;9.60;99.90;;;;;;5013031;28;20172;-95
2022/09/28 05:56:46;;;;;;;10.57;6.30;;;9.50;99.90;;;;;;5000612;28;20180;-92
2022/09/28 05:59:15;;;;;;;6.37;5.47;;;9.40;99.90;;;;;;4981896;28;20186;-91
2022/09/28 06:02:24;;;;;;;8.80;6.27;;;9.40;99.90;;;;;;4998474;28;20172;-90
2022/09/28 06:04:51;;;;;;;8.40;6.67;;;9.50;99.90;;;;;;5011642;28;20155;-92
2022/09/28 06:07:51;;;;;;;11.90;6.70;;;9.60;99.90;;;;;;4992392;28;20239;-90
2022/09/28 06:10:48;;;;;;;11.70;7.43;;;9.70;99.90;;;;;;4990067;28;20215;-89
2022/09/28 06:13:27;;;;;;;9.40;7.10;;;9.80;99.90;;;;;;4980562;28;20201;-90
2022/09/28 06:15:59;;;;;;;7.93;7.13;;;9.80;99.90;;;;;;4982086;28;20156;-90
2022/09/28 06:18:47;;;;;;;10.40;8.03;;;9.80;99.90;;;;;;4981311;28;20200;-94
2022/09/28 06:21:22;;;;;;;10.43;7.23;;;9.80;99.90;;;;;;4980934;28;20187;-93
2022/09/28 06:24:03;;;;;;;9.27;6.47;;;10.00;99.90;;;;;;5315117;23;20250;-94
2022/09/28 06:26:33;;;;;;;10.40;7.47;;;9.90;99.90;;;;;;5048353;23;20238;-93
2022/09/28 06:29:36;;;;;;;9.23;7.60;;;9.80;99.90;;;;;;4998720;28;20203;-92
2022/09/28 06:32:06;;;;;;;14.07;10.83;;;9.80;99.90;;;;;;4992410;28;20196;-92
2022/09/28 06:35:28;;;;;;;11.40;9.07;;;10.10;99.90;;;;;;4965505;28;20192;-93
2022/09/28 06:38:00;;;;;;;10.10;6.57;;;9.90;99.90;;;;;;4996546;28;20171;-93
2022/09/28 06:43:13;;;;;;;11.50;7.90;;;9.90;99.90;;;;;;5808479;23;20227;-90
2022/09/28 07:20:09;;;;;;;11.00;7.50;;;10.60;99.90;;;;;;5423115;23;20226;-96
2022/09/28 07:23:05;;;;;;;12.43;6.83;;;10.60;99.90;;;;;;5036328;28;20225;-96
2022/09/28 07:25:46;;;;;;;9.03;7.00;;;10.70;99.90;;;;;;5033883;28;20186;-95
2022/09/28 07:28:16;;;;;;;9.30;6.87;;;10.60;99.90;;;;;;5026522;28;20179;-95
2022/09/28 07:30:48;;;;;;;10.50;6.37;;;10.80;99.90;;;;;;5024596;28;20202;-96
2022/09/28 07:33:16;;;;;;;10.57;6.17;;;11.00;99.90;;;;;;5005065;28;20175;-95
2022/09/28 07:36:10;;;;;;;11.10;7.80;;;11.00;99.90;;;;;;5024733;28;20669;-96
2022/09/28 07:38:58;;;;;;;9.00;6.77;;;11.10;99.10;;;;;;5009491;28;20179;-94
2022/09/28 07:41:31;;;;;;;8.43;6.50;;;11.10;98.40;;;;;;4999611;28;20195;-85
2022/09/28 07:44:04;;;;;;;11.20;6.43;;;11.30;97.50;;;;;;5008701;28;20273;-82
2022/09/28 07:46:39;;;;;;;10.10;5.67;;;11.70;98.10;;;;;;5017456;28;20285;-83
2022/09/28 07:49:05;;;;;;;10.23;5.90;;;12.10;96.70;;;;;;5017148;28;20202;-83
2022/09/28 07:51:32;;;;;;;9.77;5.43;;;12.20;92.40;;;;;;5013648;28;20182;-85
2022/09/28 07:53:59;;;;;;;11.97;6.37;;;12.30;90.70;;;;;;5015109;28;20178;-85
2022/09/28 07:56:25;;;;;;;8.07;5.70;;;12.40;85.00;;;;;;5016712;28;20198;-84
2022/09/28 07:58:51;;;;;;;9.00;5.53;;;12.50;82.70;;;;;;5015991;28;20635;-86
2022/09/28 08:01:18;;;;;;;9.23;5.30;;;12.70;81.00;;;;;;5011105;28;20186;-87
2022/09/28 08:03:46;;;;;;;9.33;5.60;;;12.90;80.50;;;;;;5009812;28;20218;-87
2022/09/28 08:06:19;;;;;;;13.50;5.10;;;12.80;77.10;;;;;;5016858;28;20182;-91
2022/09/28 08:08:48;;;;;;;11.30;6.20;;;13.20;73.00;;;;;;5059452;23;20243;-92
2022/09/28 08:11:18;;;;;;;9.20;5.53;;;13.00;63.70;;;;;;4974474;28;20189;-94
2022/09/28 08:14:07;;;;;;;9.47;5.53;;;12.70;64.80;;;;;;4994191;28;20164;-90
2022/09/28 08:28:19;;;;;;;10.03;5.47;;;12.50;72.50;;;;;;5014742;28;20195;-94
2022/09/28 08:31:22;;;;;;;9.80;5.07;;;12.50;74.00;;;;;;4976691;28;20207;-89
2022/09/28 08:34:03;;;;;;;11.60;4.63;;;12.50;73.30;;;;;;4978735;28;20191;-82
2022/09/28 08:36:28;;;;;;;8.83;4.57;;;12.70;72.20;;;;;;4984581;28;20183;-84
2022/09/28 08:38:54;;;;;;;9.90;4.83;;;13.00;73.00;;;;;;4973142;28;20232;-81
2022/09/28 08:41:44;;;;;;;9.20;4.67;;;13.40;67.10;;;;;;4971747;28;20235;-82
2022/09/28 08:44:15;;;;;;;9.83;4.90;;;13.60;55.70;;;;;;4973274;28;20276;-82
2022/09/28 08:46:45;;;;;;;8.60;4.70;;;13.70;46.00;;;;;;4973749;28;20263;-80
2022/09/28 08:49:17;;;;;;;9.93;4.73;;;13.80;46.40;;;;;;4969234;28;20208;-81
2022/09/28 08:52:00;;;;;;;9.40;4.37;;;13.80;44.40;;;;;;4975991;28;20638;-80
2022/09/28 08:54:57;;;;;;;8.93;4.27;;;13.90;45.10;;;;;;4960455;28;20171;-78
2022/09/28 08:58:22;;;;;;;9.17;5.00;;;14.00;42.50;;;;;;4984643;28;20655;-81
2022/09/28 09:00:50;;;;;;;10.30;5.63;;;13.50;43.70;;;;;;4976384;28;20545;-79
2022/09/28 09:03:31;;;;;;;10.30;4.93;;;13.30;56.20;;;;;;4968271;28;20184;-76
2022/09/28 09:06:34;;;;;;;9.83;4.53;;;13.40;54.00;;;;;;4973856;28;20179;-74
2022/09/28 09:09:14;;;;;;;12.00;4.90;;;13.30;57.20;;;;;;4977501;28;20199;-75
2022/09/28 09:12:13;;;;;;;7.27;3.90;;;13.70;61.10;;;;;;4976244;28;20177;-78
2022/09/28 09:15:02;;;;;;;9.33;3.93;;;13.90;56.70;;;;;;4985335;28;20256;-93
2022/09/28 09:24:35;;;;;;;8.60;3.50;;;14.10;35.70;;;;;;4999272;28;20190;-93
2022/09/28 09:27:37;;;;;;;8.40;3.53;;;14.10;37.50;;;;;;4989134;28;20176;-94
2022/09/28 09:30:25;;;;;;;6.70;3.23;;;14.10;31.60;;;;;;4987693;28;20208;-94
2022/09/28 09:33:01;;;;;;;8.00;3.20;;;14.00;27.70;;;;;;5001454;28;20176;-94
2022/09/28 09:35:53;;;;;;;8.23;3.20;;;14.00;29.00;;;;;;4985940;28;20185;-96
2022/09/28 09:39:02;;;;;;;10.03;3.17;;;14.10;33.00;;;;;;5069477;23;20235;-93
2022/09/28 09:41:54;;;;;;;8.47;3.20;;;13.90;33.50;;;;;;5020826;28;20196;-93
2022/09/28 09:44:35;;;;;;;5.77;3.07;;;14.00;35.30;;;;;;5020233;28;20682;-94
2022/09/28 09:47:18;;;;;;;7.60;2.80;;;14.10;35.00;;;;;;5011739;28;20426;-93
2022/09/28 09:50:00;;;;;;;8.70;3.37;;;14.10;32.00;;;;;;5006035;28;20209;-96
2022/09/28 09:52:56;;;;;;;6.07;2.73;;;14.20;26.60;;;;;;4995696;28;20185;-95
2022/09/28 09:55:53;;;;;;;6.87;2.80;;;14.00;25.20;;;;;;5020952;28;20173;-94
2022/09/28 09:58:44;;;;;;;5.30;2.43;;;14.10;27.50;;;;;;5030983;23;20257;-94
2022/09/28 10:01:16;;;;;;;5.33;2.40;;;14.10;19.80;;;;;;5040903;23;20229;-93
2022/09/28 10:03:57;;;;;;;5.87;2.07;;;14.00;15.20;;;;;;5021688;28;20171;-96
2022/09/28 10:06:32;;;;;;;4.67;2.13;;;13.70;19.60;;;;;;5021001;28;20168;-94
2022/09/28 10:09:33;;;;;;;4.30;2.23;;;13.70;18.60;;;;;;5013459;28;20203;-95
2022/09/28 10:12:32;;;;;;;6.13;2.13;;;13.70;22.70;;;;;;5051695;23;20226;-94
2022/09/28 10:15:06;;;;;;;4.23;2.43;;;13.80;19.80;;;;;;5020199;28;20159;-94
2022/09/28 10:33:35;;;;;;;5.00;2.17;;;14.60;1.00;;;;;;5087117;23;20210;-94
2022/09/28 10:44:54;;;;;;;4.93;1.63;;;15.00;1.00;;;;;;4999540;28;20202;-95
2022/09/28 10:51:07;;;;;;;4.50;1.90;;;14.50;1.00;;;;;;5046761;23;20444;-94
2022/09/28 11:06:51;;;;;;;5.10;1.70;;;14.40;1.00;;;;;;5037194;23;20455;-94
2022/09/28 11:09:38;;;;;;;8.00;3.07;;;14.50;1.00;;;;;;5043405;23;20206;-95
2022/09/28 11:12:35;;;;;;;6.17;1.60;;;14.70;1.00;;;;;;5024775;23;20207;-94
2022/09/28 11:15:06;;;;;;;4.63;1.40;;;14.90;1.00;;;;;;5091177;23;20203;-92
2022/09/28 11:17:40;;;;;;;4.30;1.40;;;15.00;1.00;;;;;;5019290;28;20202;-94
2022/09/28 11:20:30;;;;;;;3.40;1.50;;;15.00;1.00;;;;;;5138311;23;20241;-93
2022/09/28 11:22:59;;;;;;;2.90;1.37;;;14.80;1.00;;;;;;5130044;23;20449;-95
2022/09/28 11:32:03;;;;;;;2.50;1.60;;;14.80;1.00;;;;;;5112310;23;20469;-95
2022/09/28 12:01:51;;;;;;;4.23;1.63;;;16.00;1.00;;;;;;5163208;23;20242;-92
2022/09/28 12:04:47;;;;;;;5.07;1.80;;;15.80;1.00;;;;;;5035665;28;20202;-93
2022/09/28 12:07:55;;;;;;;5.50;1.40;;;16.10;1.00;;;;;;5014724;28;20184;-92
2022/09/28 12:11:11;;;;;;;3.23;1.40;;;15.90;1.00;;;;;;5016775;28;20229;-93
2022/09/28 12:14:29;;;;;;;3.60;1.20;;;15.80;1.00;;;;;;4995636;28;20175;-94
2022/09/28 12:17:21;;;;;;;4.13;1.10;;;15.90;1.00;;;;;;4975244;28;20187;-92
2022/09/28 12:20:55;;;;;;;6.87;1.30;;;15.50;1.00;;;;;;4978117;28;20613;-93
2022/09/28 12:24:15;;;;;;;2.67;0.87;;;15.20;1.00;;;;;;4987562;28;20179;-95
2022/09/28 12:30:39;;;;;;;2.73;1.07;;;15.10;1.00;;;;;;5115959;23;20233;-94
2022/09/28 12:33:29;;;;;;;3.17;1.20;;;15.00;1.00;;;;;;4980021;28;20243;-93
2022/09/28 12:36:40;;;;;;;8.57;2.37;;;14.90;1.00;;;;;;4973977;28;20178;-93
2022/09/28 12:39:43;;;;;;;5.97;1.70;;;14.90;1.00;;;;;;4990847;28;20179;-94
2022/09/28 12:42:51;;;;;;;4.43;1.50;;;15.10;1.00;;;;;;4985010;28;20303;-93
2022/09/28 12:46:06;;;;;;;8.93;2.00;;;15.30;1.00;;;;;;4970433;28;20175;-94
2022/09/28 12:49:34;;;;;;;2.43;1.10;;;15.60;1.00;;;;;;4987298;28;20206;-94
2022/09/28 12:52:39;;;;;;;2.17;1.10;;;15.80;1.00;;;;;;4971633;28;20175;-93
2022/09/28 12:55:26;;;;;;;3.30;1.20;;;16.10;1.00;;;;;;4987628;28;20679;-93
2022/09/28 12:58:27;;;;;;;5.57;1.23;;;16.40;1.00;;;;;;5009954;28;20190;-94
2022/09/28 13:01:35;;;;;;;4.07;1.20;;;16.20;1.00;;;;;;5031074;28;20167;-91
2022/09/28 13:04:26;;;;;;;3.40;1.33;;;16.10;1.00;;;;;;5017054;28;20190;-91
2022/09/28 13:07:29;;;;;;;4.60;1.20;;;16.30;1.00;;;;;;5016620;28;20198;-93
2022/09/28 13:10:33;;;;;;;4.17;1.27;;;16.40;1.00;;;;;;5011557;28;20219;-92
2022/09/28 13:13:41;;;;;;;3.53;0.93;;;16.30;1.00;;;;;;5021601;28;20246;-93
2022/09/28 13:16:33;;;;;;;1.63;0.80;;;15.90;1.00;;;;;;5006960;28;20190;-93
2022/09/28 13:19:41;;;;;;;4.37;0.97;;;15.70;1.00;;;;;;5008261;28;20194;-92
2022/09/28 13:25:33;;;;;;;2.73;0.97;;;16.10;1.00;;;;;;5077982;23;20223;-95
2022/09/28 13:30:37;;;;;;;1.57;0.80;;;16.10;1.00;;;;;;5008526;28;20308;-94
2022/09/28 13:33:13;;;;;;;3.03;0.90;;;16.10;1.00;;;;;;4997627;28;20192;-93
2022/09/28 13:35:50;;;;;;;1.77;0.90;;;16.30;1.00;;;;;;4981872;28;20199;-91
2022/09/28 13:41:50;;;;;;;2.67;1.27;;;16.70;1.00;;;;;;4994161;28;20251;-93
2022/09/28 13:48:07;;;;;;;2.73;0.87;;;16.70;1.00;;;;;;5070885;23;20222;-94
2022/09/28 13:51:17;;;;;;;3.10;1.13;;;16.40;1.00;;;;;;5017509;28;20210;-90
2022/09/28 14:00:44;;;;;;;3.97;1.00;;;15.60;1.00;;;;;;5021128;28;20182;-93
2022/09/28 14:03:57;;;;;;;4.77;1.53;;;15.50;1.00;;;;;;5019949;28;20175;-92
2022/09/28 14:06:49;;;;;;;3.07;1.10;;;15.60;1.00;;;;;;5018099;28;20190;-90
2022/09/28 14:10:06;;;;;;;2.40;1.30;;;15.50;1.00;;;;;;5003069;28;20242;-92
2022/09/28 14:13:28;;;;;;;3.83;1.20;;;15.60;1.00;;;;;;5020600;28;20167;-91
2022/09/28 14:16:34;;;;;;;3.93;1.10;;;15.60;1.00;;;;;;5016963;28;20175;-92
2022/09/28 14:19:23;;;;;;;9.17;1.30;;;15.60;1.00;;;;;;5013819;28;20223;-94
2022/09/28 14:22:03;;;;;;;3.90;1.97;;;15.70;1.00;;;;;;5015464;28;20290;-93
2022/09/28 14:25:15;;;;;;;5.10;1.47;;;15.80;1.00;;;;;;5016838;28;20182;-93
2022/09/28 14:34:23;;;;;;;3.03;0.80;;;15.30;1.00;;;;;;4999242;28;20198;-93
2022/09/28 14:41:13;;;;;;;2.87;1.10;;;15.10;1.00;;;;;;4992982;28;20178;-91
2022/09/28 14:48:02;;;;;;;2.50;0.90;;;14.90;1.00;;;;;;4992919;28;20170;-94
2022/09/28 14:50:29;;;;;;;3.70;1.17;;;15.00;1.00;;;;;;4996427;28;20209;-94
2022/09/28 14:53:46;;;;;;;2.53;1.10;;;15.10;1.00;;;;;;5001123;28;20206;-92
2022/09/28 14:57:03;;;;;;;4.80;1.33;;;15.20;1.00;;;;;;5545154;23;20321;-93
2022/09/28 14:59:48;;;;;;;4.50;1.37;;;15.50;1.00;;;;;;5013819;28;20187;-94
2022/09/28 15:02:29;;;;;;;5.80;1.40;;;15.70;1.00;;;;;;5014031;28;20592;-93
2022/09/28 15:05:22;;;;;;;4.67;1.50;;;15.80;1.00;;;;;;5015345;28;20171;-93
2022/09/28 15:07:53;;;;;;;3.23;1.10;;;15.90;1.00;;;;;;5013341;28;20175;-92
2022/09/28 15:10:47;;;;;;;4.67;1.30;;;15.70;1.00;;;;;;5008742;28;20203;-92
2022/09/28 15:16:17;;;;;;;3.27;1.17;;;16.00;1.00;;;;;;5214034;23;20242;-95
2022/09/28 15:19:50;;;;;;;3.63;1.23;;;15.90;1.00;;;;;;5010502;28;20167;-95
2022/09/28 15:22:59;;;;;;;5.83;1.30;;;15.80;1.00;;;;;;5011306;28;20187;-91
2022/09/28 15:28:24;;;;;;;3.97;1.17;;;16.30;1.00;;;;;;5137487;23;20249;-93
2022/09/28 15:47:37;;;;;;;2.77;1.33;;;17.90;1.00;;;;;;5017051;28;20202;-93
2022/09/28 15:50:21;;;;;;;3.50;1.10;;;17.90;1.00;;;;;;5050651;23;20206;-91
2022/09/28 15:53:04;;;;;;;4.07;1.30;;;18.00;1.00;;;;;;5005339;28;20560;-93
2022/09/28 15:55:45;;;;;;;2.80;1.13;;;18.40;1.00;;;;;;5008594;28;20564;-93
2022/09/28 15:58:31;;;;;;;2.37;1.17;;;18.10;99.90;;;;;;4992290;28;20160;-93
2022/09/28 16:01:43;;;;;;;1.90;1.10;;;18.40;99.90;;;;;;5081321;23;20226;-93
2022/09/28 16:04:54;;;;;;;3.60;1.00;;;18.50;99.90;;;;;;5027539;23;20224;-92
2022/09/28 16:10:22;;;;;;;3.77;1.90;;;18.80;99.90;;;;;;5043691;23;20259;-93
2022/09/28 16:12:55;;;;;;;2.70;1.20;;;19.00;99.90;;;;;;5000627;28;20187;-92
2022/09/28 16:15:24;;;;;;;3.33;1.20;;;19.10;46.10;;;;;;5006813;28;20191;-92
2022/09/28 16:21:55;;;;;;;2.57;1.20;;;19.30;18.60;;;;;;5018666;28;20157;-93
2022/09/28 16:24:35;;;;;;;2.20;1.30;;;19.40;27.10;;;;;;5018051;28;20194;-92
2022/09/28 16:27:50;;;;;;;4.50;1.60;;;19.30;1.00;;;;;;5005936;28;20214;-94
2022/09/28 16:30:27;;;;;;;4.27;1.17;;;18.80;1.00;;;;;;5004499;28;20310;-91
2022/09/28 16:33:00;;;;;;;3.43;1.40;;;18.70;1.00;;;;;;5000368;28;20183;-93
2022/09/28 16:35:36;;;;;;;4.90;1.33;;;18.90;1.00;;;;;;5003264;28;20184;-93
2022/09/28 16:38:14;;;;;;;6.03;2.00;;;18.50;1.00;;;;;;5000392;28;20182;-91
2022/09/28 16:40:52;;;;;;;5.43;1.93;;;18.30;1.00;;;;;;5003736;28;20163;-92
2022/09/28 16:43:35;;;;;;;6.30;2.40;;;18.40;99.90;;;;;;5003270;28;20448;-93
2022/09/28 16:46:13;;;;;;;3.10;1.70;;;18.60;99.90;;;;;;5004801;28;20181;-93
2022/09/28 16:49:11;;;;;;;;;;;;;;;;;;;;;
2022/09/28 16:52:09;;;;;;;;;;;;;;;;;;;;;
2022/09/28 16:57:19;;;;;;;3.53;1.63;;;17.10;99.90;;;;;;5004643;28;20188;-93
2022/09/28 16:59:48;;;;;;;4.27;1.63;;;17.00;99.90;;;;;;5005481;28;20183;-92
2022/09/28 17:02:26;;;;;;;4.10;1.20;;;16.80;99.90;;;;;;5124051;23;20235;-93
2022/09/28 17:04:54;;;;;;;4.83;1.80;;;16.90;1.00;;;;;;5003406;28;20183;-92
2022/09/28 17:07:30;;;;;;;5.83;1.70;;;16.70;1.00;;;;;;5006423;28;20185;-92
2022/09/28 17:10:05;;;;;;;3.97;2.10;;;16.70;1.00;;;;;;4989388;28;20206;-94
2022/09/28 17:12:34;;;;;;;4.80;2.33;;;16.50;1.00;;;;;;4998403;28;20178;-93
2022/09/28 17:15:01;;;;;;;5.30;2.30;;;16.40;1.00;;;;;;5017342;28;20163;-92
2022/09/28 17:17:32;;;;;;;3.90;1.90;;;16.20;1.00;;;;;;5017041;28;20175;-93
2022/09/28 17:20:33;;;;;;;4.43;2.27;;;16.00;1.00;;;;;;5017689;28;20209;-91
2022/09/28 17:23:02;;;;;;;9.00;5.37;;;15.90;1.00;;;;;;5016296;28;20194;-90
2022/09/28 17:25:42;;;;;;;6.23;3.93;;;15.60;1.00;;;;;;5001637;28;20174;-92
2022/09/28 17:28:31;;;;;;;5.20;3.40;;;15.40;1.00;;;;;;4997257;28;20219;-92
2022/09/28 17:30:57;;;;;;;4.23;2.50;;;15.20;1.00;;;;;;4993581;28;20211;-93
2022/09/28 17:33:25;;;;;;;4.73;2.13;;;15.10;1.00;;;;;;4998800;28;20175;-95
2022/09/28 17:36:03;;;;;;;5.70;2.07;;;15.00;1.00;;;;;;5024905;23;20230;-93
2022/09/28 17:39:08;;;;;;;6.43;2.80;;;15.00;1.00;;;;;;5051392;28;20181;-94
2022/09/28 17:41:42;;;;;;;3.83;1.93;;;14.90;1.00;;;;;;5048674;28;20221;-93
2022/09/28 17:44:14;;;;;;;5.33;2.10;;;14.80;1.00;;;;;;5032855;28;20182;-94
2022/09/28 17:46:47;;;;;;;5.83;2.87;;;14.90;1.00;;;;;;5030549;28;20217;-95
2022/09/28 17:49:24;;;;;;;5.47;1.80;;;14.70;1.00;;;;;;5043426;28;20242;-94
2022/09/28 17:51:51;;;;;;;3.03;1.93;;;14.50;1.00;;;;;;5014893;28;20287;-95
2022/09/28 17:57:12;;;;;;;5.57;2.53;;;14.70;1.00;;;;;;5710058;23;20233;-95
2022/09/28 18:06:41;;;;;;;3.47;1.83;;;14.70;1.00;;;;;;5021202;28;20216;-92
2022/09/28 18:09:15;;;;;;;5.50;2.77;;;14.70;1.00;;;;;;5020226;28;20186;-91
2022/09/28 18:12:01;;;;;;;4.00;1.90;;;14.60;1.00;;;;;;5004286;28;20160;-91
2022/09/28 18:14:49;;;;;;;2.77;2.00;;;14.60;1.00;;;;;;5137362;23;20220;-91
2022/09/28 18:17:15;;;;;;;4.83;1.93;;;14.60;1.00;;;;;;5135094;23;20226;-92
2022/09/28 18:19:42;;;;;;;4.07;2.40;;;14.30;1.00;;;;;;5023673;28;20166;-91
2022/09/28 18:22:11;;;;;;;5.03;2.60;;;14.20;1.00;;;;;;5023638;28;20174;-92
2022/09/28 18:24:51;;;;;;;;;;;;;;;;;;;;;
2022/09/28 18:27:47;;;;;;;;;;;;;;;;;;;;;
2022/09/28 18:35:27;;;;;;;6.93;2.90;;;14.10;1.00;;;;;;5263755;23;20211;-94
2022/09/28 18:40:47;;;;;;;5.33;3.27;;;13.80;1.00;;;;;;5214180;23;20217;-90
2022/09/28 18:46:25;;;;;;;4.87;2.90;;;13.80;1.00;;;;;;5119955;23;20254;-90
2022/09/28 18:48:59;;;;;;;7.40;3.80;;;13.70;1.00;;;;;;5003087;28;20183;-89
2022/09/28 18:51:40;;;;;;;7.93;3.60;;;13.90;1.00;;;;;;5019803;28;20177;-91
2022/09/28 18:54:06;;;;;;;6.63;3.50;;;13.80;1.00;;;;;;5011481;23;20262;-90
2022/09/28 18:56:43;;;;;;;5.60;3.77;;;13.80;1.00;;;;;;5190130;23;20223;-91
2022/09/28 19:02:09;;;;;;;5.17;3.57;;;13.50;1.00;;;;;;5039785;23;20576;-91
2022/09/28 19:04:44;;;;;;;7.03;4.00;;;13.40;1.00;;;;;;4993219;28;20645;-93
2022/09/28 19:07:10;;;;;;;5.87;3.70;;;13.50;1.00;;;;;;5007360;28;20182;-93
2022/09/28 19:13:09;;;;;;;6.03;3.93;;;13.40;1.00;;;;;;5008829;28;20217;-92
2022/09/28 19:16:24;;;;;;;5.30;3.83;;;13.50;1.00;;;;;;5009441;28;20179;-91
2022/09/28 19:19:53;;;;;;;13.20;4.30;;;13.60;1.00;;;;;;5005378;28;20323;-92
2022/09/28 19:22:23;;;;;;;8.00;4.03;;;13.50;1.00;;;;;;5098664;23;20228;-89
2022/09/28 19:24:52;;;;;;;6.73;4.07;;;13.50;1.00;;;;;;4999065;28;20257;-90
2022/09/28 19:27:30;;;;;;;7.37;3.63;;;13.50;1.00;;;;;;5016441;28;20178;-91
2022/09/28 19:30:06;;;;;;;5.07;3.50;;;13.40;1.00;;;;;;4999496;28;20214;-91
2022/09/28 19:33:20;;;;;;;7.33;3.17;;;13.60;1.00;;;;;;5011111;28;20171;-88
2022/09/28 19:36:09;;;;;;;6.03;3.03;;;13.70;1.00;;;;;;5009935;28;20182;-90
2022/09/28 19:39:51;;;;;;;;;;;;;;;;;;;;;
2022/09/28 19:42:07;;;;;;;8.60;3.67;;;13.30;1.00;;;;;;5012869;28;20161;-89
2022/09/28 19:44:34;;;;;;;5.57;3.50;;;13.10;1.00;;;;;;5009661;28;20173;-90
2022/09/28 19:47:07;;;;;;;6.70;4.00;;;13.30;1.00;;;;;;5012351;28;20155;-88
2022/09/28 19:49:40;;;;;;;6.93;4.50;;;13.40;1.00;;;;;;5016669;28;20183;-90
2022/09/28 19:52:37;;;;;;;8.47;3.90;;;13.20;1.00;;;;;;4999807;28;20186;-90
2022/09/28 19:55:06;;;;;;;7.30;5.03;;;13.20;1.00;;;;;;4982736;28;20702;-87
2022/09/28 19:57:33;;;;;;;12.97;4.70;;;13.40;1.00;;;;;;4980514;28;20173;-91
2022/09/28 20:00:00;;;;;;;7.77;4.23;;;13.10;1.20;;;;;;4986838;28;20183;-88
2022/09/28 20:02:26;;;;;;;9.63;4.20;;;12.90;7.50;;;;;;4999743;28;20273;-87
2022/09/28 20:04:52;;;;;;;10.77;4.13;;;12.80;12.10;;;;;;5008592;28;20184;-90
2022/09/28 20:07:20;;;;;;;7.27;4.67;;;12.80;14.30;;;;;;5007733;28;20177;-90
2022/09/28 20:09:46;;;;;;;11.50;4.67;;;12.80;15.80;;;;;;4985963;28;20256;-90
2022/09/28 20:12:12;;;;;;;6.77;4.40;;;12.80;15.30;;;;;;4998987;28;20202;-91
2022/09/28 20:14:37;;;;;;;9.33;4.87;;;12.90;15.80;;;;;;4999587;28;20181;-91
2022/09/28 20:17:03;;;;;;;10.43;4.87;;;13.10;10.80;;;;;;4999090;28;20174;-92
2022/09/28 20:19:32;;;;;;;8.83;4.43;;;13.10;10.40;;;;;;4999258;28;20174;-91
2022/09/28 20:22:01;;;;;;;7.57;4.70;;;13.00;12.60;;;;;;4998476;28;20202;-92
2022/09/28 20:24:27;;;;;;;8.57;4.83;;;12.90;13.00;;;;;;4998002;28;20191;-90
2022/09/28 20:26:53;;;;;;;7.50;4.77;;;12.90;15.10;;;;;;5006038;28;20201;-88
2022/09/28 20:29:20;;;;;;;6.10;4.30;;;12.80;16.70;;;;;;5006187;28;20202;-89
2022/09/28 20:31:46;;;;;;;8.63;5.00;;;12.70;18.90;;;;;;5008991;28;20181;-89
2022/09/28 20:34:12;;;;;;;8.87;5.40;;;12.60;21.00;;;;;;5015415;28;20175;-91
2022/09/28 20:36:41;;;;;;;7.40;4.87;;;12.60;21.50;;;;;;5002287;28;20177;-88
2022/09/28 20:39:12;;;;;;;11.57;5.73;;;12.50;22.40;;;;;;5000906;28;20188;-89
2022/09/28 20:41:41;;;;;;;10.70;5.87;;;12.40;23.90;;;;;;5001079;28;20201;-88
2022/09/28 20:44:08;;;;;;;10.43;5.93;;;12.50;25.20;;;;;;5012001;28;20159;-88
2022/09/28 20:46:35;;;;;;;10.13;6.57;;;12.50;24.70;;;;;;5001718;28;20180;-87
2022/09/28 20:49:01;;;;;;;9.10;6.07;;;12.50;25.40;;;;;;4995111;28;20703;-89
2022/09/28 20:51:26;;;;;;;8.63;5.80;;;12.40;26.50;;;;;;4996593;28;20273;-89
2022/09/28 20:53:57;;;;;;;9.40;6.73;;;12.40;27.70;;;;;;4979101;28;20230;-88
2022/09/28 20:56:29;;;;;;;11.03;7.03;;;12.40;28.60;;;;;;5007646;28;20194;-88
2022/09/28 20:58:55;;;;;;;9.17;6.30;;;12.30;29.80;;;;;;5017881;28;20175;-89
2022/09/28 21:01:30;;;;;;;9.73;5.97;;;12.20;30.80;;;;;;5012891;28;20256;-90
2022/09/28 21:03:57;;;;;;;10.37;7.57;;;12.10;32.40;;;;;;5013709;28;20168;-88
2022/09/28 21:06:32;;;;;;;13.43;8.73;;;12.10;33.40;;;;;;5014656;28;20175;-89
2022/09/28 21:12:24;;;;;;;9.57;6.47;;;12.10;35.30;;;;;;5003136;28;20226;-91
2022/09/28 21:14:53;;;;;;;9.77;6.83;;;12.00;37.30;;;;;;5004938;28;20545;-89
2022/09/28 21:17:21;;;;;;;10.07;6.40;;;12.00;37.80;;;;;;5000934;28;20187;-89
2022/09/28 21:19:47;;;;;;;11.77;6.90;;;12.00;38.00;;;;;;5007297;28;20196;-89
2022/09/28 21:22:14;;;;;;;10.40;7.30;;;12.10;36.50;;;;;;5020943;28;20175;-88
2022/09/28 21:24:39;;;;;;;10.60;7.27;;;12.30;29.80;;;;;;5011071;28;20195;-87
2022/09/28 21:27:08;;;;;;;8.43;7.07;;;12.40;25.20;;;;;;5008018;28;20199;-89
2022/09/28 21:29:34;;;;;;;10.90;7.20;;;12.40;26.60;;;;;;5001384;28;20639;-90
2022/09/28 21:32:01;;;;;;;8.87;6.83;;;12.30;27.80;;;;;;5001323;28;20176;-89
2022/09/28 21:34:34;;;;;;;8.50;6.00;;;12.10;34.00;;;;;;4991914;28;20171;-89
2022/09/28 21:37:01;;;;;;;8.70;6.97;;;12.10;40.10;;;;;;4991474;28;20212;-88
2022/09/28 21:39:28;;;;;;;11.50;7.57;;;11.70;41.40;;;;;;4997308;28;20231;-89
2022/09/28 21:41:54;;;;;;;10.93;7.43;;;11.70;44.70;;;;;;4987745;28;20303;-90
2022/09/28 21:44:21;;;;;;;10.90;8.10;;;11.60;47.80;;;;;;4986052;28;20214;-90
2022/09/28 21:46:48;;;;;;;14.87;7.80;;;11.80;47.60;;;;;;4981609;28;20540;-90
2022/09/28 21:49:13;;;;;;;12.10;8.10;;;11.60;47.10;;;;;;4976260;28;20222;-89
2022/09/28 21:51:39;;;;;;;10.80;8.03;;;11.50;50.50;;;;;;4982264;28;20315;-89